Time;durP1;ratioP1;P1;durP2;ratioP2;P2;SDS_P1;SDS_P2;PMS_P1;PMS_P2;Temp;Humidity;BMP_temperature;BMP_pressure;BME280_temperature;BME280_humidity;BME280_pressure;Samples;Min_cycle;Max_cycle;Signal;HPM_P1;HPM_P2
2024/03/24 00:01:29;;;;;;;1.93;0.60;;;5.90;99.90;;;;;;5077712;28;20085;-79
2024/03/24 00:03:54;;;;;;;1.10;0.50;;;5.80;99.90;;;;;;5077704;28;20465;-77
2024/03/24 00:06:20;;;;;;;3.17;0.60;;;5.90;99.90;;;;;;5077975;28;20055;-77
2024/03/24 00:08:46;;;;;;;1.13;0.50;;;5.80;99.90;;;;;;5077185;28;20617;-78
2024/03/24 00:11:11;;;;;;;1.43;0.47;;;5.90;99.90;;;;;;5077468;28;20048;-78
2024/03/24 00:13:37;;;;;;;0.53;0.40;;;5.90;99.90;;;;;;5077193;28;20032;-78
2024/03/24 00:16:03;;;;;;;3.27;0.60;;;5.80;99.90;;;;;;5095529;28;20394;-77
2024/03/24 00:18:29;;;;;;;2.93;0.80;;;5.90;99.90;;;;;;5094722;28;20391;-80
2024/03/24 00:20:54;;;;;;;0.93;0.63;;;5.80;99.90;;;;;;5095593;28;20024;-78
2024/03/24 00:23:21;;;;;;;1.70;0.60;;;5.90;99.90;;;;;;5095169;28;20020;-78
2024/03/24 00:25:46;;;;;;;1.60;1.03;;;5.90;99.90;;;;;;5076964;28;20024;-78
2024/03/24 00:28:12;;;;;;;0.73;0.57;;;5.90;99.90;;;;;;5094844;28;20047;-79
2024/03/24 00:30:37;;;;;;;1.37;0.60;;;6.00;99.90;;;;;;5094776;28;20072;-78
2024/03/24 00:33:04;;;;;;;2.07;0.80;;;5.90;99.90;;;;;;5077151;28;20074;-78
2024/03/24 00:35:30;;;;;;;0.83;0.50;;;6.00;99.90;;;;;;5076983;28;20107;-82
2024/03/24 00:37:55;;;;;;;1.47;0.60;;;6.00;99.90;;;;;;5077083;28;20035;-78
2024/03/24 00:40:21;;;;;;;2.27;0.67;;;6.00;99.90;;;;;;5077384;28;20016;-78
2024/03/24 00:42:47;;;;;;;2.50;0.73;;;6.00;99.90;;;;;;5077205;28;20024;-78
2024/03/24 00:45:13;;;;;;;1.90;0.70;;;6.00;99.90;;;;;;5095753;28;20142;-78
2024/03/24 00:47:39;;;;;;;1.70;0.57;;;6.00;99.90;;;;;;5076559;28;20032;-78
2024/03/24 00:50:05;;;;;;;2.20;0.83;;;6.00;99.90;;;;;;5095243;28;20492;-77
2024/03/24 00:52:31;;;;;;;3.50;1.00;;;6.00;99.90;;;;;;5076737;28;20016;-81
2024/03/24 00:54:58;;;;;;;0.60;0.40;;;6.10;99.90;;;;;;5077353;28;20449;-77
2024/03/24 00:57:24;;;;;;;1.93;0.67;;;6.10;99.90;;;;;;5095028;28;20103;-77
2024/03/24 00:59:50;;;;;;;1.47;0.70;;;6.10;99.90;;;;;;5076464;28;20082;-77
2024/03/24 01:02:16;;;;;;;5.03;0.70;;;6.10;99.90;;;;;;5077007;28;20020;-77
2024/03/24 01:04:41;;;;;;;1.43;0.87;;;6.10;99.90;;;;;;5076417;28;20016;-77
2024/03/24 01:07:07;;;;;;;2.20;0.67;;;6.20;99.90;;;;;;5076081;28;20051;-78
2024/03/24 01:09:32;;;;;;;2.07;0.60;;;6.20;99.90;;;;;;5076087;28;20027;-78
2024/03/24 01:11:58;;;;;;;0.97;0.50;;;6.20;99.90;;;;;;5076563;28;20111;-78
2024/03/24 01:14:24;;;;;;;0.50;0.40;;;6.10;99.90;;;;;;5076842;28;20024;-78
2024/03/24 01:16:50;;;;;;;1.33;0.60;;;6.10;99.90;;;;;;5076170;28;20039;-78
2024/03/24 01:19:16;;;;;;;0.77;0.57;;;6.10;99.90;;;;;;5077066;28;20028;-78
2024/03/24 01:21:41;;;;;;;0.70;0.60;;;6.10;99.90;;;;;;5094085;28;20472;-77
2024/03/24 01:24:07;;;;;;;2.53;0.80;;;6.10;99.90;;;;;;5094456;28;20055;-77
2024/03/24 01:26:33;;;;;;;0.60;0.50;;;6.10;99.90;;;;;;5075712;28;20016;-82
2024/03/24 01:28:58;;;;;;;0.87;0.40;;;6.10;99.90;;;;;;5076789;28;20016;-77
2024/03/24 01:31:24;;;;;;;3.20;0.63;;;6.00;99.90;;;;;;5076391;28;20024;-78
2024/03/24 01:33:50;;;;;;;1.37;0.50;;;6.10;99.90;;;;;;5093855;28;20024;-78
2024/03/24 01:36:15;;;;;;;0.93;0.50;;;6.10;99.90;;;;;;5076357;28;20480;-78
2024/03/24 01:38:41;;;;;;;0.50;0.40;;;6.10;99.90;;;;;;5075745;28;20059;-77
2024/03/24 01:41:06;;;;;;;1.63;0.60;;;6.00;99.90;;;;;;5076271;28;20077;-78
2024/03/24 01:43:32;;;;;;;0.90;0.40;;;6.00;99.90;;;;;;5075426;28;20019;-83
2024/03/24 01:45:57;;;;;;;1.47;0.50;;;6.00;99.90;;;;;;5075864;28;20048;-78
2024/03/24 01:48:23;;;;;;;1.70;0.50;;;5.90;99.90;;;;;;5075708;28;20111;-80
2024/03/24 01:50:49;;;;;;;1.23;0.60;;;5.90;99.90;;;;;;5075178;28;20020;-78
2024/03/24 01:53:16;;;;;;;2.07;0.80;;;5.90;99.90;;;;;;5075437;28;20433;-79
2024/03/24 01:55:41;;;;;;;1.97;0.40;;;5.90;99.90;;;;;;5092940;28;20020;-77
2024/03/24 01:58:07;;;;;;;0.93;0.73;;;6.00;99.90;;;;;;5075897;28;20154;-77
2024/03/24 02:00:33;;;;;;;2.50;0.80;;;6.00;99.90;;;;;;5075467;28;20024;-83
2024/03/24 02:02:59;;;;;;;1.73;0.60;;;6.00;99.90;;;;;;5093631;28;20427;-77
2024/03/24 02:05:28;;;;;;;2.07;0.60;;;6.10;99.90;;;;;;5094024;28;20020;-78
2024/03/24 02:07:54;;;;;;;0.67;0.40;;;6.10;99.90;;;;;;5075421;28;20030;-77
2024/03/24 02:10:23;;;;;;;0.40;0.40;;;6.00;99.90;;;;;;5093895;28;20020;-78
2024/03/24 02:12:48;;;;;;;0.67;0.60;;;5.90;99.90;;;;;;5075425;28;20043;-78
2024/03/24 02:15:14;;;;;;;2.07;0.60;;;5.90;99.90;;;;;;5075774;28;20448;-78
2024/03/24 02:17:41;;;;;;;1.73;0.50;;;5.90;99.90;;;;;;5094175;28;20062;-79
2024/03/24 02:20:08;;;;;;;0.70;0.50;;;5.90;99.90;;;;;;5080046;28;20024;-77
2024/03/24 02:22:42;;;;;;;0.80;0.60;;;5.90;99.90;;;;;;5097573;28;20016;-80
2024/03/24 02:25:08;;;;;;;0.90;0.57;;;5.90;99.90;;;;;;5059701;28;20040;-77
2024/03/24 02:27:34;;;;;;;0.70;0.60;;;5.90;99.90;;;;;;5058800;28;20132;-82
2024/03/24 02:30:00;;;;;;;0.63;0.50;;;5.90;99.90;;;;;;5059275;28;20103;-77
2024/03/24 02:32:26;;;;;;;1.40;0.80;;;5.80;99.90;;;;;;5059195;28;20051;-77
2024/03/24 02:34:52;;;;;;;0.87;0.53;;;5.90;99.90;;;;;;5058478;28;20498;-76
2024/03/24 02:37:18;;;;;;;1.40;0.80;;;5.90;99.90;;;;;;5070571;28;20023;-77
2024/03/24 02:39:44;;;;;;;1.13;0.60;;;5.90;99.90;;;;;;5078289;28;20016;-77
2024/03/24 02:42:10;;;;;;;1.40;0.60;;;5.90;99.90;;;;;;5078615;28;20103;-77
2024/03/24 02:44:36;;;;;;;1.07;0.60;;;5.90;99.90;;;;;;5096446;28;20048;-82
2024/03/24 02:47:02;;;;;;;1.03;0.60;;;5.90;99.90;;;;;;5096742;28;20053;-77
2024/03/24 02:49:28;;;;;;;0.80;0.60;;;5.90;99.90;;;;;;5078609;28;20020;-78
2024/03/24 02:51:53;;;;;;;1.60;0.70;;;5.90;99.90;;;;;;5078110;28;20473;-77
2024/03/24 02:54:19;;;;;;;1.00;0.70;;;5.90;99.90;;;;;;5079026;28;20520;-77
2024/03/24 02:56:45;;;;;;;1.07;0.80;;;5.90;99.90;;;;;;5078442;28;20046;-78
2024/03/24 02:59:11;;;;;;;1.47;0.70;;;5.80;99.90;;;;;;5078967;28;20093;-77
2024/03/24 03:01:37;;;;;;;1.33;0.77;;;5.80;99.90;;;;;;5096572;28;20107;-82
2024/03/24 03:04:03;;;;;;;0.83;0.50;;;5.80;99.90;;;;;;5078731;28;20016;-77
2024/03/24 03:06:30;;;;;;;1.03;0.70;;;5.70;99.90;;;;;;5078869;28;20107;-77
2024/03/24 03:08:56;;;;;;;1.93;0.63;;;5.60;99.90;;;;;;5078318;28;20038;-77
2024/03/24 03:11:21;;;;;;;1.00;0.50;;;5.70;99.90;;;;;;5078949;28;20440;-77
2024/03/24 03:13:47;;;;;;;0.80;0.67;;;5.60;99.90;;;;;;5077937;28;20045;-78
2024/03/24 03:16:13;;;;;;;0.80;0.40;;;5.70;99.90;;;;;;5096553;28;20080;-77
2024/03/24 03:18:38;;;;;;;1.10;0.70;;;5.70;99.90;;;;;;5078370;28;20031;-82
2024/03/24 03:21:04;;;;;;;0.90;0.60;;;5.70;99.90;;;;;;5078568;28;20461;-77
2024/03/24 03:23:30;;;;;;;0.73;0.63;;;5.80;99.90;;;;;;5096554;28;20027;-77
2024/03/24 03:25:55;;;;;;;0.87;0.60;;;5.80;99.90;;;;;;5077579;28;20028;-77
2024/03/24 03:28:21;;;;;;;0.90;0.53;;;5.70;99.90;;;;;;5096125;28;20063;-78
2024/03/24 03:30:47;;;;;;;1.00;0.70;;;5.70;99.90;;;;;;5076662;28;20453;-77
2024/03/24 03:33:13;;;;;;;1.43;0.50;;;5.70;99.90;;;;;;5077980;28;20023;-77
2024/03/24 03:35:39;;;;;;;0.70;0.60;;;5.60;99.90;;;;;;5077608;28;20030;-81
2024/03/24 03:38:04;;;;;;;1.70;0.70;;;5.60;99.90;;;;;;5077299;28;20119;-77
2024/03/24 03:40:30;;;;;;;1.00;0.70;;;5.60;99.90;;;;;;5095973;28;20099;-77
2024/03/24 03:42:56;;;;;;;2.20;0.60;;;5.60;99.90;;;;;;5095409;28;20024;-77
2024/03/24 03:45:24;;;;;;;0.87;0.60;;;5.60;99.90;;;;;;5074012;28;20053;-77
2024/03/24 03:47:50;;;;;;;0.70;0.60;;;5.60;99.90;;;;;;5073628;28;20036;-77
2024/03/24 03:50:17;;;;;;;0.90;0.60;;;5.50;99.90;;;;;;5074750;28;20020;-77
2024/03/24 03:52:47;;;;;;;2.50;0.63;;;5.50;99.90;;;;;;5075385;28;20052;-78
2024/03/24 03:55:15;;;;;;;1.93;0.60;;;5.50;99.90;;;;;;5074737;28;20024;-77
2024/03/24 03:57:41;;;;;;;0.40;0.40;;;5.50;99.90;;;;;;5074038;28;20051;-80
2024/03/24 04:00:13;;;;;;;0.50;0.50;;;5.50;99.90;;;;;;5074051;28;20016;-77
2024/03/24 04:02:42;;;;;;;2.70;1.35;;;5.50;99.90;;;;;;5074459;28;20024;-82
2024/03/24 04:05:09;;;;;;;0.73;0.50;;;5.50;99.90;;;;;;5074692;28;20024;-77
2024/03/24 04:07:38;;;;;;;0.53;0.50;;;5.40;99.90;;;;;;5074099;28;20032;-77
2024/03/24 04:10:05;;;;;;;0.40;0.40;;;5.50;99.90;;;;;;5073709;28;20055;-77
2024/03/24 04:12:31;;;;;;;0.43;0.40;;;5.50;99.90;;;;;;5074243;28;20437;-78
2024/03/24 04:15:01;;;;;;;1.10;0.43;;;5.40;99.90;;;;;;5073959;28;20049;-79
2024/03/24 04:17:27;;;;;;;0.57;0.43;;;5.40;99.90;;;;;;5073863;28;20115;-78
2024/03/24 04:19:53;;;;;;;0.67;0.43;;;5.40;99.90;;;;;;5073445;28;20054;-78
2024/03/24 04:22:19;;;;;;;1.37;0.60;;;5.40;99.90;;;;;;5075094;28;20020;-79
2024/03/24 04:24:49;;;;;;;0.97;0.63;;;5.40;99.90;;;;;;5073584;28;20020;-79
2024/03/24 04:27:16;;;;;;;3.07;0.70;;;5.40;99.90;;;;;;5074214;28;20032;-78
2024/03/24 04:29:42;;;;;;;1.33;0.50;;;5.40;99.90;;;;;;5073647;28;20024;-84
2024/03/24 04:32:08;;;;;;;0.90;0.57;;;5.40;99.90;;;;;;5073719;28;20084;-78
2024/03/24 04:34:35;;;;;;;1.67;0.80;;;5.40;99.90;;;;;;5073666;28;20048;-79
2024/03/24 04:37:00;;;;;;;1.03;0.70;;;5.40;99.90;;;;;;5073280;28;20120;-78
2024/03/24 04:39:27;;;;;;;1.07;0.87;;;5.40;99.90;;;;;;5074429;28;20063;-77
2024/03/24 04:41:52;;;;;;;2.40;0.60;;;5.50;99.90;;;;;;5072931;28;20020;-78
2024/03/24 04:44:18;;;;;;;1.63;0.73;;;5.50;99.90;;;;;;5073182;28;20051;-77
2024/03/24 04:46:43;;;;;;;2.23;1.10;;;5.50;99.90;;;;;;5072515;28;20111;-78
2024/03/24 04:49:09;;;;;;;0.80;0.70;;;5.50;99.90;;;;;;5072670;28;20610;-77
2024/03/24 04:51:35;;;;;;;4.70;1.20;;;5.50;99.90;;;;;;5073369;28;20024;-78
2024/03/24 04:54:02;;;;;;;1.00;0.83;;;5.50;99.90;;;;;;5072692;28;20339;-79
2024/03/24 04:56:27;;;;;;;1.23;0.87;;;5.40;99.90;;;;;;5073254;28;20445;-79
2024/03/24 04:58:53;;;;;;;3.60;1.03;;;5.40;99.90;;;;;;5072509;28;20021;-79
2024/03/24 05:01:19;;;;;;;1.10;1.00;;;5.50;99.90;;;;;;5073227;28;20017;-79
2024/03/24 05:03:44;;;;;;;0.90;0.60;;;5.40;99.90;;;;;;5072993;28;20226;-85
2024/03/24 05:06:10;;;;;;;2.33;0.90;;;5.40;99.90;;;;;;5074074;28;20025;-79
2024/03/24 05:08:38;;;;;;;3.33;1.20;;;5.40;99.90;;;;;;5072854;28;20115;-77
2024/03/24 05:11:09;;;;;;;3.57;0.93;;;5.50;99.90;;;;;;5072694;28;20021;-77
2024/03/24 05:13:35;;;;;;;1.77;0.87;;;5.50;99.90;;;;;;5072887;28;20118;-77
2024/03/24 05:16:01;;;;;;;1.70;1.03;;;5.50;99.90;;;;;;5072558;28;20024;-79
2024/03/24 05:18:27;;;;;;;3.33;1.47;;;5.50;99.90;;;;;;5074109;28;20032;-77
2024/03/24 05:20:53;;;;;;;1.50;0.90;;;5.50;99.90;;;;;;5073656;28;20051;-77
2024/03/24 05:23:19;;;;;;;1.57;0.83;;;5.50;99.90;;;;;;5073242;28;20120;-77
2024/03/24 05:25:52;;;;;;;1.00;0.77;;;5.50;99.90;;;;;;5073768;28;20024;-84
2024/03/24 05:28:18;;;;;;;1.43;0.97;;;5.40;99.90;;;;;;5074319;28;20090;-80
2024/03/24 05:30:44;;;;;;;1.93;0.90;;;5.50;99.90;;;;;;5073035;28;20016;-84
2024/03/24 05:33:09;;;;;;;1.63;0.90;;;5.50;99.90;;;;;;5072858;28;20365;-78
2024/03/24 05:35:35;;;;;;;3.30;1.23;;;5.40;99.90;;;;;;5073950;28;20024;-78
2024/03/24 05:38:01;;;;;;;2.97;1.00;;;5.50;99.90;;;;;;5072272;28;20404;-78
2024/03/24 05:40:26;;;;;;;1.53;0.90;;;5.40;99.90;;;;;;5072900;28;20426;-78
2024/03/24 05:42:52;;;;;;;2.63;1.00;;;5.40;99.90;;;;;;5073399;28;20029;-78
2024/03/24 05:45:17;;;;;;;2.23;0.90;;;5.50;99.90;;;;;;5072316;28;20469;-78
2024/03/24 05:47:43;;;;;;;2.73;1.33;;;5.40;99.90;;;;;;5072533;28;20032;-78
2024/03/24 05:50:09;;;;;;;2.63;0.97;;;5.40;99.90;;;;;;5071846;28;20370;-78
2024/03/24 05:52:37;;;;;;;2.50;1.10;;;5.40;99.90;;;;;;5073084;28;20086;-77
2024/03/24 05:55:06;;;;;;;1.10;0.73;;;5.40;99.90;;;;;;5072045;28;20067;-78
2024/03/24 05:57:32;;;;;;;1.37;0.90;;;5.40;99.90;;;;;;5073459;28;20024;-77
2024/03/24 05:59:57;;;;;;;2.23;1.00;;;5.40;99.90;;;;;;5071728;28;20476;-77
2024/03/24 06:02:23;;;;;;;2.50;1.00;;;5.40;99.90;;;;;;5072570;28;20074;-78
2024/03/24 06:04:48;;;;;;;2.40;1.10;;;5.40;99.90;;;;;;5072047;28;20119;-82
2024/03/24 06:07:14;;;;;;;2.60;1.10;;;5.40;99.90;;;;;;5072529;28;20032;-77
2024/03/24 06:09:40;;;;;;;1.87;0.83;;;5.40;99.90;;;;;;5073294;28;20107;-78
2024/03/24 06:12:06;;;;;;;2.60;1.00;;;5.50;99.90;;;;;;5071736;28;20024;-78
2024/03/24 06:14:31;;;;;;;2.00;1.00;;;5.50;99.90;;;;;;5072120;28;20028;-78
2024/03/24 06:16:57;;;;;;;3.53;1.20;;;5.60;99.90;;;;;;5071754;28;20025;-78
2024/03/24 06:19:23;;;;;;;2.53;1.10;;;5.60;99.90;;;;;;5072995;28;20438;-77
2024/03/24 06:21:49;;;;;;;2.50;1.07;;;5.60;99.90;;;;;;5071771;28;20031;-80
2024/03/24 06:24:18;;;;;;;2.17;1.13;;;5.70;99.90;;;;;;5071795;28;20032;-77
2024/03/24 06:26:44;;;;;;;4.83;0.97;;;5.70;99.90;;;;;;5073262;28;20031;-77
2024/03/24 06:29:09;;;;;;;1.60;1.00;;;5.80;99.90;;;;;;5072054;28;20017;-77
2024/03/24 06:31:35;;;;;;;1.20;0.97;;;5.80;99.90;;;;;;5072510;28;20067;-78
2024/03/24 06:34:02;;;;;;;1.50;0.83;;;5.70;99.90;;;;;;5071871;28;20024;-78
2024/03/24 06:36:28;;;;;;;1.43;0.80;;;5.60;99.90;;;;;;5072234;28;20024;-78
2024/03/24 06:38:53;;;;;;;2.87;0.80;;;5.60;99.90;;;;;;5071670;28;20032;-78
2024/03/24 06:41:19;;;;;;;1.33;0.70;;;5.70;99.90;;;;;;5072211;28;20055;-77
2024/03/24 06:43:44;;;;;;;3.63;0.93;;;5.70;99.90;;;;;;5074429;28;20381;-78
2024/03/24 06:46:10;;;;;;;1.67;0.70;;;5.70;99.90;;;;;;5092972;28;20032;-79
2024/03/24 06:48:36;;;;;;;2.43;0.77;;;5.80;99.90;;;;;;5075418;28;20028;-78
2024/03/24 06:51:03;;;;;;;1.53;0.80;;;5.80;99.90;;;;;;5075181;28;20117;-77
2024/03/24 06:53:28;;;;;;;1.30;0.67;;;5.90;99.90;;;;;;5093615;28;20020;-76
2024/03/24 06:55:54;;;;;;;3.47;0.77;;;5.90;99.90;;;;;;5074962;28;20411;-77
2024/03/24 06:58:20;;;;;;;3.17;1.07;;;6.00;99.90;;;;;;5093072;28;20077;-79
2024/03/24 07:00:50;;;;;;;1.00;0.60;;;6.00;99.90;;;;;;5075177;28;20464;-77
2024/03/24 07:03:17;;;;;;;1.53;0.80;;;6.00;99.90;;;;;;5092660;28;20021;-77
2024/03/24 07:05:42;;;;;;;2.30;0.70;;;6.10;99.90;;;;;;5077152;28;20027;-77
2024/03/24 07:08:08;;;;;;;3.17;0.90;;;6.10;99.90;;;;;;5096059;28;20025;-77
2024/03/24 07:10:33;;;;;;;3.07;0.90;;;6.10;99.90;;;;;;5078673;28;20465;-78
2024/03/24 07:12:59;;;;;;;2.40;0.67;;;6.10;99.90;;;;;;5079014;28;20019;-78
2024/03/24 07:15:24;;;;;;;3.50;1.10;;;6.10;99.90;;;;;;5096791;28;20063;-78
2024/03/24 07:17:52;;;;;;;1.60;0.80;;;6.10;99.90;;;;;;5097403;28;20034;-84
2024/03/24 07:20:18;;;;;;;2.67;1.00;;;6.10;99.90;;;;;;5077924;28;20023;-78
2024/03/24 07:22:43;;;;;;;1.93;0.80;;;6.10;99.90;;;;;;5096520;28;20012;-78
2024/03/24 07:25:10;;;;;;;1.50;0.90;;;6.20;99.90;;;;;;5077683;28;20074;-77
2024/03/24 07:27:36;;;;;;;1.40;0.73;;;6.20;99.90;;;;;;5096024;28;20034;-79
2024/03/24 07:30:02;;;;;;;2.93;0.83;;;6.30;99.90;;;;;;5077823;28;20099;-79
2024/03/24 07:32:28;;;;;;;2.47;0.97;;;6.30;99.90;;;;;;5078231;28;20020;-77
2024/03/24 07:34:53;;;;;;;2.27;1.00;;;6.30;99.90;;;;;;5077810;28;20397;-83
2024/03/24 07:37:19;;;;;;;3.10;0.97;;;6.40;99.90;;;;;;5096136;28;20425;-80
2024/03/24 07:39:45;;;;;;;3.90;0.90;;;6.40;99.90;;;;;;5078354;28;20016;-78
2024/03/24 07:42:10;;;;;;;4.60;0.90;;;6.40;99.90;;;;;;5077683;28;20016;-77
2024/03/24 07:44:36;;;;;;;0.80;0.73;;;6.30;99.90;;;;;;5077592;28;20040;-78
2024/03/24 07:47:05;;;;;;;2.87;0.70;;;6.40;99.90;;;;;;5077301;28;20028;-78
2024/03/24 07:49:32;;;;;;;4.20;1.00;;;6.30;99.90;;;;;;5078201;28;20024;-78
2024/03/24 07:51:58;;;;;;;1.30;0.60;;;6.30;99.90;;;;;;5077679;28;20093;-78
2024/03/24 07:54:24;;;;;;;1.77;0.97;;;6.20;99.90;;;;;;5078306;28;20047;-79
2024/03/24 07:56:49;;;;;;;1.17;1.07;;;6.20;99.90;;;;;;5095796;28;20048;-79
2024/03/24 07:59:17;;;;;;;3.03;1.20;;;6.20;99.90;;;;;;5077459;28;20054;-79
2024/03/24 08:01:43;;;;;;;3.80;1.10;;;6.30;99.90;;;;;;5086169;28;20025;-80
2024/03/24 08:04:09;;;;;;;1.77;1.00;;;6.30;99.90;;;;;;5058867;28;20025;-81
2024/03/24 08:06:35;;;;;;;2.30;0.73;;;6.30;99.90;;;;;;5058105;28;20136;-78
2024/03/24 08:09:01;;;;;;;3.97;1.00;;;6.40;99.90;;;;;;5056838;28;20107;-79
2024/03/24 08:11:26;;;;;;;4.43;1.10;;;6.50;99.90;;;;;;5085953;28;20036;-77
2024/03/24 08:13:52;;;;;;;2.37;0.90;;;6.70;99.90;;;;;;5077808;28;20027;-77
2024/03/24 08:16:17;;;;;;;2.63;1.08;;;6.70;99.90;;;;;;5076999;28;20121;-78
2024/03/24 08:18:43;;;;;;;7.20;1.13;;;6.60;99.90;;;;;;5077501;28;20368;-77
2024/03/24 08:21:09;;;;;;;2.77;0.93;;;6.70;99.90;;;;;;5076858;28;20021;-78
2024/03/24 08:23:34;;;;;;;3.40;1.00;;;6.80;99.90;;;;;;5077071;28;20024;-77
2024/03/24 08:26:00;;;;;;;2.90;0.80;;;6.70;99.90;;;;;;5080050;28;20097;-79
2024/03/24 08:28:26;;;;;;;4.13;1.10;;;6.80;99.90;;;;;;5104234;28;20051;-83
2024/03/24 08:30:52;;;;;;;3.55;1.45;;;6.90;99.90;;;;;;5104647;28;20020;-80
2024/03/24 08:33:18;;;;;;;2.08;1.20;;;6.90;99.90;;;;;;5088516;28;20046;-79
2024/03/24 08:35:44;;;;;;;1.20;0.97;;;7.00;99.90;;;;;;5106233;28;20095;-81
2024/03/24 08:38:09;;;;;;;2.43;0.90;;;7.00;99.90;;;;;;5083357;28;20032;-80
2024/03/24 08:40:35;;;;;;;3.63;1.38;;;6.90;99.90;;;;;;5098154;28;20032;-81
2024/03/24 08:43:00;;;;;;;5.20;1.97;;;6.90;99.90;;;;;;5085276;28;20102;-79
2024/03/24 08:45:26;;;;;;;5.90;1.53;;;6.90;99.90;;;;;;5083668;28;20044;-81
2024/03/24 08:47:52;;;;;;;3.05;1.10;;;6.90;99.90;;;;;;5089370;28;20067;-78
2024/03/24 08:50:17;;;;;;;2.27;1.00;;;6.90;99.90;;;;;;5105410;28;20410;-79
2024/03/24 08:52:43;;;;;;;5.73;1.13;;;6.90;99.90;;;;;;5107475;28;20459;-79
2024/03/24 08:55:08;;;;;;;6.43;1.60;;;6.90;99.90;;;;;;5082635;28;20506;-78
2024/03/24 08:57:35;;;;;;;2.50;1.13;;;6.80;99.90;;;;;;5102102;28;20023;-78
2024/03/24 09:00:01;;;;;;;4.70;1.00;;;6.90;99.90;;;;;;5103596;28;20027;-82
2024/03/24 09:02:26;;;;;;;4.90;1.15;;;7.00;99.90;;;;;;5104853;28;20019;-79
2024/03/24 09:04:55;;;;;;;1.85;0.70;;;7.10;99.90;;;;;;5085491;28;20026;-80
2024/03/24 09:07:21;;;;;;;4.03;0.90;;;7.20;99.90;;;;;;5102108;28;20031;-82
2024/03/24 09:09:47;;;;;;;6.35;1.00;;;7.20;99.90;;;;;;5082482;28;20016;-80
2024/03/24 09:12:13;;;;;;;4.07;0.88;;;7.20;99.90;;;;;;5084690;28;20461;-80
2024/03/24 09:14:39;;;;;;;6.40;0.95;;;7.30;99.90;;;;;;5084955;28;20024;-79
2024/03/24 09:17:05;;;;;;;5.28;1.10;;;7.40;99.90;;;;;;5102848;28;20032;-80
2024/03/24 09:19:30;;;;;;;2.95;0.95;;;7.50;99.90;;;;;;5085355;28;20032;-79
2024/03/24 09:21:56;;;;;;;2.20;1.08;;;7.50;99.90;;;;;;5083177;28;20027;-83
2024/03/24 09:24:22;;;;;;;4.10;1.00;;;7.50;99.90;;;;;;5085263;28;20023;-79
2024/03/24 09:26:50;;;;;;;2.40;0.80;;;7.60;99.90;;;;;;5084519;28;20360;-80
2024/03/24 09:29:16;;;;;;;3.17;0.95;;;7.60;99.90;;;;;;5098492;28;20066;-79
2024/03/24 09:31:42;;;;;;;2.42;0.93;;;7.50;99.90;;;;;;5082114;28;20044;-81
2024/03/24 09:34:08;;;;;;;3.00;1.13;;;7.50;99.90;;;;;;5081902;28;20098;-78
2024/03/24 09:36:33;;;;;;;3.88;0.85;;;7.60;99.90;;;;;;5083058;28;20477;-80
2024/03/24 09:38:59;;;;;;;4.75;1.10;;;7.70;99.90;;;;;;5087032;28;20111;-80
2024/03/24 09:41:27;;;;;;;3.67;1.00;;;8.00;99.90;;;;;;5085946;28;20099;-79
2024/03/24 09:43:54;;;;;;;3.08;1.17;;;8.10;99.90;;;;;;5084153;28;20048;-84
2024/03/24 09:46:20;;;;;;;8.05;1.60;;;8.10;99.90;;;;;;5102543;28;20023;-81
2024/03/24 09:48:50;;;;;;;2.95;0.98;;;8.10;99.90;;;;;;5086212;28;20037;-81
2024/03/24 09:51:19;;;;;;;7.45;1.23;;;8.10;99.90;;;;;;5084632;28;20444;-82
2024/03/24 09:53:45;;;;;;;4.68;1.30;;;8.10;99.90;;;;;;5084551;28;20529;-79
2024/03/24 09:56:11;;;;;;;4.22;1.08;;;8.10;99.90;;;;;;5100254;28;20028;-83
2024/03/24 09:58:42;;;;;;;6.43;1.30;;;8.20;99.90;;;;;;5089145;28;20057;-79
2024/03/24 10:01:08;;;;;;;6.10;1.30;;;8.10;99.90;;;;;;5099790;28;20468;-80
2024/03/24 10:03:34;;;;;;;2.40;0.90;;;8.10;99.90;;;;;;5085031;28;20019;-79
2024/03/24 10:06:03;;;;;;;5.50;0.90;;;8.20;99.90;;;;;;5104264;28;20070;-80
2024/03/24 10:08:35;;;;;;;2.67;1.00;;;8.20;99.90;;;;;;5084142;28;20413;-79
2024/03/24 10:11:20;;;;;;;;;;;8.20;99.90;;;;;;5102881;28;20023;-80
2024/03/24 10:13:46;;;;;;;4.95;1.17;;;8.10;99.90;;;;;;5069199;28;19904;-81
2024/03/24 10:16:15;;;;;;;2.85;0.98;;;8.00;99.90;;;;;;5084688;28;20337;-81
2024/03/24 10:18:41;;;;;;;3.38;0.80;;;8.00;99.90;;;;;;5102437;28;20042;-81
2024/03/24 10:21:10;;;;;;;3.83;1.10;;;8.00;99.90;;;;;;5084251;28;20020;-80
2024/03/24 10:23:37;;;;;;;6.20;1.10;;;7.90;99.90;;;;;;5103167;28;20031;-82
2024/03/24 10:26:02;;;;;;;7.75;1.33;;;7.90;99.90;;;;;;5084524;28;20020;-82
2024/03/24 10:28:28;;;;;;;6.80;1.20;;;7.80;99.90;;;;;;5084210;28;20035;-83
2024/03/24 10:31:07;;;;;;;5.93;0.95;;;7.90;99.90;;;;;;5083710;28;20016;-86
2024/03/24 10:33:36;;;;;;;4.28;1.33;;;7.90;99.90;;;;;;5103563;28;20475;-79
2024/03/24 10:36:08;;;;;;;4.70;1.00;;;7.80;99.90;;;;;;5083780;28;20031;-80
2024/03/24 10:38:38;;;;;;;5.05;1.08;;;7.90;99.90;;;;;;5085242;28;20060;-81
2024/03/24 10:41:05;;;;;;;2.58;0.90;;;7.80;99.90;;;;;;5109124;28;20024;-85
2024/03/24 10:43:31;;;;;;;5.25;1.27;;;7.90;99.90;;;;;;5104542;28;20043;-82
2024/03/24 10:45:57;;;;;;;6.43;1.13;;;8.00;99.90;;;;;;5105421;28;20023;-81
2024/03/24 10:48:33;;;;;;;2.03;0.80;;;8.10;99.90;;;;;;5102743;28;20058;-79
2024/03/24 10:51:04;;;;;;;2.35;0.85;;;8.20;99.90;;;;;;5083945;28;20020;-80
2024/03/24 10:53:33;;;;;;;3.30;0.80;;;8.20;99.90;;;;;;5089612;28;20510;-80
2024/03/24 10:56:00;;;;;;;2.85;0.80;;;8.10;99.90;;;;;;5103179;28;20031;-81
2024/03/24 10:58:27;;;;;;;4.07;1.00;;;8.20;99.90;;;;;;5086676;28;20039;-81
2024/03/24 11:00:54;;;;;;;4.70;1.35;;;8.30;99.90;;;;;;5087703;28;20016;-88
2024/03/24 11:03:21;;;;;;;2.22;0.90;;;8.40;99.90;;;;;;5086928;28;20024;-82
2024/03/24 11:05:48;;;;;;;4.95;1.20;;;8.30;99.90;;;;;;5108721;28;20024;-81
2024/03/24 11:08:16;;;;;;;4.03;1.00;;;8.20;99.90;;;;;;5083083;28;20032;-81
2024/03/24 11:10:45;;;;;;;4.07;0.93;;;8.20;99.90;;;;;;5087210;28;20464;-81
2024/03/24 11:13:17;;;;;;;4.88;1.15;;;8.10;99.90;;;;;;5084154;28;20173;-81
2024/03/24 11:15:46;;;;;;;;;;;8.00;99.90;;;;;;5084769;28;20024;-80
2024/03/24 11:18:17;;;;;;;4.95;1.10;;;7.70;99.90;;;;;;5077522;28;20320;-81
2024/03/24 11:20:43;;;;;;;6.32;1.17;;;7.60;99.90;;;;;;5086041;28;20016;-79
2024/03/24 11:23:25;;;;;;;4.53;1.23;;;7.50;99.90;;;;;;5088705;28;20023;-80
2024/03/24 11:25:53;;;;;;;;;;;7.50;99.90;;;;;;5086724;28;20028;-84
2024/03/24 11:28:39;;;;;;;3.80;1.00;;;7.50;99.90;;;;;;5092824;28;20248;-81
2024/03/24 11:31:20;;;;;;;6.72;1.60;;;7.40;99.90;;;;;;5104369;28;20447;-79
2024/03/24 11:34:05;;;;;;;5.32;1.20;;;7.40;99.90;;;;;;5087470;28;20074;-80
2024/03/24 11:36:32;;;;;;;4.13;1.35;;;7.30;99.90;;;;;;5090817;28;20020;-81
2024/03/24 11:38:59;;;;;;;6.32;1.27;;;7.30;99.90;;;;;;5084380;28;20028;-85
2024/03/24 11:41:24;;;;;;;4.13;1.05;;;7.20;99.90;;;;;;5083701;28;20064;-80
2024/03/24 11:43:57;;;;;;;7.03;1.20;;;7.20;99.90;;;;;;5087932;28;20138;-81
2024/03/24 11:46:23;;;;;;;4.60;1.38;;;7.30;99.90;;;;;;5076324;28;20024;-81
2024/03/24 11:48:49;;;;;;;3.65;1.55;;;7.20;99.90;;;;;;5091195;28;20464;-79
2024/03/24 11:51:15;;;;;;;4.50;1.90;;;7.00;99.90;;;;;;5103303;28;20027;-79
2024/03/24 11:53:41;;;;;;;6.45;1.73;;;6.90;99.90;;;;;;5086392;28;20046;-79
2024/03/24 11:56:07;;;;;;;9.10;1.95;;;6.80;99.90;;;;;;5087063;28;20471;-81
2024/03/24 11:58:32;;;;;;;3.33;1.40;;;6.80;99.90;;;;;;5084924;28;20024;-79
2024/03/24 12:01:00;;;;;;;3.05;1.33;;;6.70;99.90;;;;;;5088278;28;20050;-84
2024/03/24 12:03:26;;;;;;;7.40;1.20;;;6.80;99.90;;;;;;5086617;28;20464;-79
2024/03/24 12:05:52;;;;;;;5.25;1.70;;;6.90;99.90;;;;;;5084083;28;20065;-82
2024/03/24 12:08:20;;;;;;;6.65;1.70;;;7.00;99.90;;;;;;5087469;28;20046;-80
2024/03/24 12:10:46;;;;;;;10.50;2.00;;;7.00;99.90;;;;;;5088762;28;20024;-80
2024/03/24 12:13:12;;;;;;;2.60;1.40;;;7.10;99.90;;;;;;5087425;28;20079;-81
2024/03/24 12:15:38;;;;;;;5.60;1.52;;;7.30;99.90;;;;;;5105091;28;20344;-84
2024/03/24 12:18:12;;;;;;;5.75;1.88;;;7.20;99.90;;;;;;5086621;28;20035;-85
2024/03/24 12:20:38;;;;;;;3.33;1.40;;;7.20;99.90;;;;;;5086928;28;20020;-80
2024/03/24 12:23:04;;;;;;;5.35;1.52;;;7.40;99.90;;;;;;5101058;28;20051;-79
2024/03/24 12:25:31;;;;;;;6.10;1.42;;;7.50;99.90;;;;;;5085136;28;20051;-80
2024/03/24 12:27:57;;;;;;;4.40;1.50;;;7.80;99.90;;;;;;5085321;28;20127;-82
2024/03/24 12:30:24;;;;;;;5.07;1.30;;;8.00;99.90;;;;;;5104870;28;20042;-79
2024/03/24 12:32:50;;;;;;;3.22;1.45;;;8.00;99.90;;;;;;5084305;28;20020;-78
2024/03/24 12:35:19;;;;;;;2.25;0.90;;;8.30;99.90;;;;;;5104211;28;20166;-78
2024/03/24 12:37:49;;;;;;;2.03;0.68;;;8.20;99.90;;;;;;5102177;28;20156;-77
2024/03/24 12:40:24;;;;;;;2.53;0.60;;;8.30;99.90;;;;;;5081807;28;20036;-78
2024/03/24 12:42:50;;;;;;;4.30;0.75;;;8.60;99.90;;;;;;5088756;28;20024;-78
2024/03/24 12:45:17;;;;;;;1.48;0.95;;;8.90;99.90;;;;;;5083381;28;20048;-78
2024/03/24 12:47:43;;;;;;;1.63;1.10;;;9.20;99.90;;;;;;5086875;28;20043;-79
2024/03/24 12:50:29;;;;;;;4.00;0.82;;;9.30;99.90;;;;;;5085674;28;20022;-76
2024/03/24 12:53:42;;;;;;;1.30;0.80;;;9.40;99.90;;;;;;5080451;28;20023;-83
2024/03/24 12:56:10;;;;;;;4.50;1.02;;;9.20;99.90;;;;;;5080056;28;20028;-81